Time;durP1;ratioP1;P1;durP2;ratioP2;P2;SDS_P1;SDS_P2;PMS_P1;PMS_P2;Temp;Humidity;BMP_temperature;BMP_pressure;BME280_temperature;BME280_humidity;BME280_pressure;Samples;Min_cycle;Max_cycle;Signal;HPM_P1;HPM_P2
2022/12/27 00:01:45;;;;;;;5.65;2.40;;;5.10;99.90;;;;;;5076492;22;20037;-44
2022/12/27 00:04:10;;;;;;;8.20;2.22;;;5.10;99.90;;;;;;5072519;28;20035;-49
2022/12/27 00:06:36;;;;;;;4.72;2.38;;;5.00;99.90;;;;;;5072054;28;20036;-53
2022/12/27 00:09:03;;;;;;;6.75;2.55;;;5.00;99.90;;;;;;5072130;28;20071;-50
2022/12/27 00:11:29;;;;;;;5.40;2.42;;;4.90;99.90;;;;;;5071427;28;20446;-52
2022/12/27 00:14:02;;;;;;;4.80;2.20;;;5.00;99.90;;;;;;5071166;28;20016;-47
2022/12/27 00:16:28;;;;;;;6.03;2.25;;;4.90;99.90;;;;;;5072433;28;20017;-49
2022/12/27 00:18:54;;;;;;;2.53;1.90;;;4.90;99.90;;;;;;5071980;28;20029;-47
2022/12/27 00:21:20;;;;;;;6.28;1.80;;;4.90;99.90;;;;;;5071761;28;20028;-49
2022/12/27 00:23:55;;;;;;;5.93;2.15;;;4.90;99.90;;;;;;5072861;28;20589;-47
2022/12/27 00:26:26;;;;;;;4.63;2.42;;;4.80;99.90;;;;;;5073823;28;20039;-47
2022/12/27 00:28:53;;;;;;;4.35;1.77;;;4.80;99.90;;;;;;5075740;28;20025;-47
2022/12/27 00:31:21;;;;;;;2.70;1.73;;;4.70;99.90;;;;;;5073725;28;20056;-49
2022/12/27 00:33:49;;;;;;;3.20;2.10;;;4.70;99.90;;;;;;5071767;28;20553;-47
2022/12/27 00:36:18;;;;;;;5.18;1.83;;;4.70;99.90;;;;;;5072481;28;20024;-51
2022/12/27 00:38:44;;;;;;;4.45;1.90;;;4.60;99.90;;;;;;5072492;28;20020;-51
2022/12/27 00:41:10;;;;;;;3.38;2.13;;;4.60;99.90;;;;;;5072001;28;20020;-47
2022/12/27 00:43:36;;;;;;;6.40;2.58;;;4.60;99.90;;;;;;5053563;28;20032;-50
2022/12/27 00:46:02;;;;;;;4.07;1.75;;;4.60;99.90;;;;;;5071975;28;20070;-49
2022/12/27 00:48:28;;;;;;;2.88;1.85;;;4.50;99.90;;;;;;5071856;28;20061;-48
2022/12/27 00:51:02;;;;;;;2.95;1.60;;;4.50;99.90;;;;;;5053745;28;20020;-48
2022/12/27 00:53:29;;;;;;;7.68;1.30;;;4.40;99.90;;;;;;5071083;28;20021;-47
2022/12/27 00:55:54;;;;;;;1.92;1.00;;;4.50;99.90;;;;;;5071654;28;20029;-47
2022/12/27 00:58:20;;;;;;;1.20;1.05;;;4.50;99.90;;;;;;5071656;28;20257;-50
2022/12/27 01:00:46;;;;;;;2.75;1.50;;;4.50;99.90;;;;;;5071634;28;20396;-47
2022/12/27 01:03:11;;;;;;;2.60;1.10;;;4.50;99.90;;;;;;5070961;28;20036;-49
2022/12/27 01:05:37;;;;;;;3.20;1.00;;;4.50;99.90;;;;;;5071651;28;20032;-46
2022/12/27 01:08:03;;;;;;;1.40;1.08;;;4.50;99.90;;;;;;5071539;28;20024;-47
2022/12/27 01:10:30;;;;;;;7.95;1.30;;;4.50;99.90;;;;;;5071526;28;20485;-51
2022/12/27 01:12:56;;;;;;;2.95;1.00;;;4.50;99.90;;;;;;5070818;28;20024;-49
2022/12/27 01:15:21;;;;;;;4.40;1.42;;;4.50;99.90;;;;;;5071425;28;20094;-50
2022/12/27 01:17:47;;;;;;;3.88;2.20;;;4.50;99.90;;;;;;5053499;28;20027;-49
2022/12/27 01:20:12;;;;;;;0.90;0.90;;;4.50;99.90;;;;;;5071260;28;20024;-46
2022/12/27 01:22:38;;;;;;;4.50;1.65;;;4.50;99.90;;;;;;5069580;28;20074;-49
2022/12/27 01:25:04;;;;;;;2.33;1.13;;;4.40;99.90;;;;;;5053352;28;20032;-46
2022/12/27 01:27:30;;;;;;;4.65;1.20;;;4.40;99.90;;;;;;5053231;28;20052;-50
2022/12/27 01:29:55;;;;;;;1.88;0.80;;;4.50;99.90;;;;;;5071323;28;20024;-47
2022/12/27 01:32:21;;;;;;;1.92;1.10;;;4.40;99.90;;;;;;5070722;28;20078;-47
2022/12/27 01:34:46;;;;;;;6.30;1.40;;;4.30;99.90;;;;;;5071267;28;20024;-51
2022/12/27 01:37:12;;;;;;;2.10;1.48;;;4.30;99.90;;;;;;5071047;28;20032;-50
2022/12/27 01:39:37;;;;;;;3.50;0.80;;;4.30;99.90;;;;;;5071210;28;20028;-48
2022/12/27 01:44:54;;;;;;;3.55;1.13;;;4.20;99.90;;;;;;5071294;28;20039;-50
2022/12/27 01:47:20;;;;;;;2.35;1.00;;;4.30;99.90;;;;;;5071984;28;20068;-47
2022/12/27 01:50:02;;;;;;;3.72;1.10;;;4.20;99.90;;;;;;5075532;28;20455;-46
2022/12/27 01:52:47;;;;;;;2.72;1.10;;;4.20;99.90;;;;;;5074741;28;20029;-47
2022/12/27 01:55:39;;;;;;;1.85;1.33;;;4.20;99.90;;;;;;5075932;28;20076;-47
2022/12/27 01:58:14;;;;;;;16.63;1.10;;;4.20;99.90;;;;;;5065893;28;20033;-47
2022/12/27 02:00:42;;;;;;;2.83;0.80;;;4.20;99.90;;;;;;5075062;28;20036;-47
2022/12/27 02:03:09;;;;;;;1.67;1.15;;;4.20;99.90;;;;;;5075103;28;20025;-48
2022/12/27 02:05:40;;;;;;;2.22;0.88;;;4.20;99.90;;;;;;5074081;28;20463;-48
2022/12/27 02:08:24;;;;;;;2.95;1.00;;;4.10;99.90;;;;;;5074919;28;20642;-48
2022/12/27 02:10:51;;;;;;;5.55;1.42;;;4.10;99.90;;;;;;5074800;28;20028;-47
2022/12/27 02:13:18;;;;;;;2.42;1.23;;;4.10;99.90;;;;;;5074049;28;20028;-46
2022/12/27 02:15:43;;;;;;;1.85;1.20;;;4.10;99.90;;;;;;5074570;28;20028;-50
2022/12/27 02:18:09;;;;;;;1.65;1.02;;;4.00;99.90;;;;;;5074729;28;20028;-43
2022/12/27 02:21:08;;;;;;;2.55;1.15;;;4.00;99.90;;;;;;5074400;28;20029;-50
2022/12/27 02:24:06;;;;;;;1.45;0.95;;;3.90;99.90;;;;;;5042337;28;20044;-45
2022/12/27 02:26:50;;;;;;;2.42;0.98;;;3.90;99.90;;;;;;5056254;28;20118;-49
2022/12/27 02:29:36;;;;;;;3.15;1.17;;;3.90;99.90;;;;;;5056469;28;20516;-49
2022/12/27 02:32:08;;;;;;;1.95;0.95;;;3.90;99.90;;;;;;5073457;28;20476;-44
2022/12/27 02:34:59;;;;;;;4.05;1.65;;;3.90;99.90;;;;;;5074171;28;20480;-47
2022/12/27 02:37:28;;;;;;;6.47;2.45;;;3.90;99.90;;;;;;5074002;28;20553;-48
2022/12/27 02:53:02;;;;;;;5.05;1.48;;;3.80;99.90;;;;;;5074235;28;20024;-49
2022/12/27 02:54:32;;;;;;;2.35;1.15;;;3.70;99.90;;;;;;5073657;28;20061;-48
2022/12/27 02:57:30;;;;;;;3.83;1.30;;;3.70;99.90;;;;;;5073910;28;20017;-50
2022/12/27 03:03:23;;;;;;;5.10;1.23;;;3.60;99.90;;;;;;5073006;28;20404;-47
2022/12/27 03:18:29;;;;;;;2.65;1.50;;;3.50;99.90;;;;;;5072893;28;20166;-51
2022/12/27 03:26:32;;;;;;;5.80;1.67;;;3.50;99.90;;;;;;5074846;28;20036;-50
2022/12/27 03:34:39;;;;;;;2.83;1.38;;;3.50;99.90;;;;;;5073696;28;20055;-51
2022/12/27 03:40:19;;;;;;;3.58;1.50;;;3.60;99.90;;;;;;5073701;28;20050;-50
2022/12/27 03:43:09;;;;;;;1.67;1.17;;;3.60;99.90;;;;;;5072694;28;20032;-46
2022/12/27 03:48:56;;;;;;;5.00;1.83;;;3.50;99.90;;;;;;5073117;28;20082;-46
2022/12/27 03:51:24;;;;;;;1.83;1.02;;;3.60;99.90;;;;;;5072928;28;20044;-46
2022/12/27 03:53:54;;;;;;;8.40;2.17;;;3.60;99.90;;;;;;5072384;28;20439;-50
2022/12/27 03:56:20;;;;;;;5.78;2.03;;;3.50;99.90;;;;;;5073116;28;20023;-52
2022/12/27 03:58:45;;;;;;;7.05;1.50;;;3.60;99.90;;;;;;5072662;28;20385;-51
2022/12/27 04:01:11;;;;;;;11.82;2.35;;;3.50;99.90;;;;;;5072603;28;20043;-50
2022/12/27 04:03:36;;;;;;;5.32;1.70;;;3.60;99.90;;;;;;5072095;28;20031;-49
2022/12/27 04:06:02;;;;;;;2.40;1.30;;;3.60;99.90;;;;;;5072626;28;20028;-54
2022/12/27 04:35:48;;;;;;;3.28;1.90;;;3.40;99.90;;;;;;5072300;28;20051;-49
2022/12/27 04:38:13;;;;;;;11.93;1.70;;;3.40;99.90;;;;;;5072020;28;20032;-51
2022/12/27 04:57:16;;;;;;;6.88;2.65;;;3.20;99.90;;;;;;5071730;28;20032;-50
2022/12/27 05:02:25;;;;;;;5.05;2.85;;;3.20;99.90;;;;;;5070681;28;20044;-47
2022/12/27 05:04:51;;;;;;;8.00;2.35;;;3.20;99.90;;;;;;5072017;28;20033;-50
2022/12/27 05:15:30;;;;;;;7.65;2.58;;;3.20;99.90;;;;;;5071785;28;20035;-45
2022/12/27 05:17:57;;;;;;;5.88;2.53;;;3.20;99.90;;;;;;5071547;28;20531;-50
2022/12/27 05:20:23;;;;;;;10.63;2.75;;;3.20;99.90;;;;;;5071516;28;20108;-46
2022/12/27 05:25:38;;;;;;;4.25;2.55;;;3.20;99.90;;;;;;5072363;28;20032;-46
2022/12/27 05:28:05;;;;;;;4.70;2.42;;;3.20;99.90;;;;;;5076367;28;20031;-50
2022/12/27 05:30:39;;;;;;;7.25;2.85;;;3.30;99.90;;;;;;5058773;28;20060;-48
2022/12/27 05:33:06;;;;;;;4.95;2.83;;;3.20;99.90;;;;;;5071176;28;20061;-49
2022/12/27 05:35:35;;;;;;;8.23;2.85;;;3.20;99.90;;;;;;5054522;28;20093;-48
2022/12/27 05:38:01;;;;;;;6.38;2.70;;;3.20;99.90;;;;;;5071762;28;20131;-48
2022/12/27 05:40:26;;;;;;;4.80;2.67;;;3.20;99.90;;;;;;5074059;28;20055;-46
2022/12/27 05:42:52;;;;;;;9.05;4.00;;;3.20;99.90;;;;;;5074519;28;20100;-50
2022/12/27 05:45:18;;;;;;;12.55;3.13;;;3.20;99.90;;;;;;5075468;28;20039;-46
2022/12/27 05:47:44;;;;;;;6.63;2.33;;;3.20;99.90;;;;;;5057377;28;20081;-47
2022/12/27 05:50:10;;;;;;;10.13;2.58;;;3.20;99.90;;;;;;5057311;28;20025;-47
2022/12/27 05:52:36;;;;;;;8.98;2.95;;;3.20;99.90;;;;;;5074766;28;20330;-46
2022/12/27 05:55:02;;;;;;;3.67;2.88;;;3.20;99.90;;;;;;5075558;28;20020;-47
2022/12/27 05:57:27;;;;;;;10.98;2.97;;;3.30;99.90;;;;;;5074899;28;20025;-46
2022/12/27 05:59:53;;;;;;;6.78;3.05;;;3.30;99.90;;;;;;5075030;28;20029;-48
2022/12/27 06:02:18;;;;;;;3.78;2.55;;;3.20;99.90;;;;;;5115545;22;20127;-49
2022/12/27 06:04:44;;;;;;;6.18;2.50;;;3.20;99.90;;;;;;5101400;28;20103;-47
2022/12/27 06:07:10;;;;;;;12.43;5.90;;;3.10;99.90;;;;;;5101988;28;20125;-50
2022/12/27 06:09:36;;;;;;;3.60;2.13;;;3.10;99.90;;;;;;5101311;28;20020;-48
2022/12/27 06:12:01;;;;;;;8.23;3.85;;;3.10;99.90;;;;;;5110455;28;20048;-47
2022/12/27 06:14:27;;;;;;;5.60;2.58;;;3.10;99.90;;;;;;5120252;28;20095;-49
2022/12/27 06:16:52;;;;;;;8.23;2.55;;;3.10;99.90;;;;;;5120845;28;20020;-46
2022/12/27 06:19:18;;;;;;;7.57;3.95;;;3.10;99.90;;;;;;5120034;28;20024;-48
2022/12/27 06:21:43;;;;;;;7.07;2.80;;;3.10;99.90;;;;;;5117146;28;20481;-49
2022/12/27 06:24:09;;;;;;;6.20;2.80;;;3.10;99.90;;;;;;5120652;28;20023;-48
2022/12/27 06:26:35;;;;;;;5.50;2.85;;;3.10;99.90;;;;;;5125182;28;20034;-49
2022/12/27 06:29:00;;;;;;;5.40;2.40;;;3.10;99.90;;;;;;5121677;28;20054;-47
2022/12/27 06:31:26;;;;;;;10.25;3.00;;;3.10;99.90;;;;;;5122199;28;20027;-50
2022/12/27 06:33:52;;;;;;;6.55;2.50;;;3.20;99.90;;;;;;5120638;28;20061;-50
2022/12/27 06:36:25;;;;;;;5.72;2.60;;;3.20;99.90;;;;;;5121428;28;20028;-49
2022/12/27 06:38:50;;;;;;;11.80;2.83;;;3.20;99.90;;;;;;5102476;28;20402;-49
2022/12/27 06:41:17;;;;;;;6.55;2.75;;;3.20;99.90;;;;;;5120557;28;20032;-50
2022/12/27 06:43:44;;;;;;;8.48;3.55;;;3.20;99.90;;;;;;5119348;28;20031;-50
2022/12/27 06:46:12;;;;;;;6.55;2.72;;;3.20;99.90;;;;;;5119459;28;20038;-50
2022/12/27 06:48:38;;;;;;;7.05;2.95;;;3.20;99.90;;;;;;5119606;28;20054;-51
2022/12/27 06:51:05;;;;;;;7.32;2.72;;;3.20;99.90;;;;;;5119557;28;20020;-52
2022/12/27 06:53:31;;;;;;;9.25;2.72;;;3.20;99.90;;;;;;5119327;28;20057;-48
2022/12/27 06:55:56;;;;;;;5.15;2.67;;;3.20;99.90;;;;;;5101903;28;20102;-49
2022/12/27 06:58:22;;;;;;;6.85;2.53;;;3.20;99.90;;;;;;5119728;28;20023;-54
2022/12/27 07:00:48;;;;;;;7.30;2.25;;;3.10;99.90;;;;;;5119232;28;20098;-53
2022/12/27 07:03:13;;;;;;;13.80;2.83;;;3.10;99.90;;;;;;5119353;28;20032;-52
2022/12/27 07:05:39;;;;;;;10.20;2.70;;;3.10;99.90;;;;;;5101525;28;20024;-49
2022/12/27 07:08:05;;;;;;;6.18;2.83;;;3.10;99.90;;;;;;5120076;28;20027;-53
2022/12/27 07:10:30;;;;;;;12.38;6.07;;;3.10;99.90;;;;;;5119762;28;20043;-52
2022/12/27 07:12:56;;;;;;;4.68;3.00;;;3.10;99.90;;;;;;5118683;28;20471;-53
2022/12/27 07:15:23;;;;;;;7.53;2.95;;;3.20;99.90;;;;;;5101526;28;20391;-52
2022/12/27 07:17:48;;;;;;;7.47;3.00;;;3.20;99.90;;;;;;5119937;28;20152;-49
2022/12/27 07:20:14;;;;;;;10.35;3.78;;;3.20;99.90;;;;;;5119836;28;20047;-51
2022/12/27 07:22:39;;;;;;;11.68;3.50;;;3.20;99.90;;;;;;5117204;28;20020;-53
2022/12/27 07:25:05;;;;;;;9.35;2.85;;;3.30;99.90;;;;;;5119497;28;20042;-54
2022/12/27 07:27:35;;;;;;;13.43;4.05;;;3.30;99.90;;;;;;5119679;28;20024;-47
2022/12/27 07:30:01;;;;;;;3.85;2.70;;;3.30;99.90;;;;;;5119752;28;20045;-47
2022/12/27 07:32:27;;;;;;;7.22;3.47;;;3.20;99.90;;;;;;5118549;28;20430;-47
2022/12/27 07:34:52;;;;;;;9.30;2.80;;;3.20;99.90;;;;;;5100713;28;20077;-52
2022/12/27 07:37:18;;;;;;;3.72;2.78;;;3.30;99.90;;;;;;5118927;28;20071;-55
2022/12/27 07:39:44;;;;;;;12.68;3.55;;;3.30;99.90;;;;;;5113175;28;20062;-50
2022/12/27 07:42:09;;;;;;;7.85;3.05;;;3.30;99.90;;;;;;5112736;28;20047;-51
2022/12/27 07:44:35;;;;;;;8.23;3.78;;;3.20;99.90;;;;;;5113538;28;20027;-51
2022/12/27 07:47:01;;;;;;;7.43;4.18;;;3.20;99.90;;;;;;5113317;28;20043;-52
2022/12/27 07:49:27;;;;;;;11.02;3.83;;;3.20;99.90;;;;;;5112239;28;20044;-51
2022/12/27 07:51:52;;;;;;;13.13;3.85;;;3.10;99.90;;;;;;5112652;28;20387;-48
2022/12/27 07:54:18;;;;;;;6.95;3.17;;;3.10;99.90;;;;;;5113212;28;20429;-52
2022/12/27 07:56:43;;;;;;;4.55;3.33;;;3.10;99.90;;;;;;5113466;28;20058;-48
2022/12/27 07:59:11;;;;;;;7.30;2.92;;;3.10;99.90;;;;;;5111179;28;20439;-53
2022/12/27 08:04:21;;;;;;;11.13;3.35;;;3.10;99.90;;;;;;5114217;28;20053;-51
2022/12/27 08:06:47;;;;;;;8.85;3.45;;;3.20;99.90;;;;;;5113468;28;20479;-50
2022/12/27 08:09:15;;;;;;;9.18;4.22;;;3.20;99.90;;;;;;5113272;28;20407;-50
2022/12/27 08:11:40;;;;;;;8.93;3.83;;;3.30;99.90;;;;;;5113849;28;20023;-53
2022/12/27 08:14:06;;;;;;;7.53;3.10;;;3.30;99.90;;;;;;5113247;28;20544;-51
2022/12/27 08:16:31;;;;;;;10.38;3.58;;;3.40;99.90;;;;;;5112757;28;20053;-52
2022/12/27 08:18:57;;;;;;;7.50;3.30;;;3.40;99.90;;;;;;5112726;28;20056;-49
2022/12/27 08:21:22;;;;;;;9.73;3.47;;;3.40;99.90;;;;;;5116090;28;20085;-53
2022/12/27 08:23:48;;;;;;;7.05;3.03;;;3.50;99.90;;;;;;5117402;28;20027;-50
2022/12/27 08:26:14;;;;;;;8.02;4.45;;;3.50;99.90;;;;;;5117873;28;20023;-52
2022/12/27 08:28:40;;;;;;;11.23;3.22;;;3.50;99.90;;;;;;5117469;28;20033;-50
2022/12/27 08:31:08;;;;;;;7.25;3.60;;;3.50;99.90;;;;;;5118044;28;20471;-51
2022/12/27 08:33:34;;;;;;;9.70;3.60;;;3.50;99.90;;;;;;5117187;28;20067;-53
2022/12/27 08:36:06;;;;;;;5.90;3.25;;;3.50;99.90;;;;;;5117190;28;20114;-54
2022/12/27 08:38:32;;;;;;;10.25;3.40;;;3.50;99.90;;;;;;5119354;28;20027;-53
2022/12/27 08:40:58;;;;;;;13.05;4.03;;;3.60;99.90;;;;;;5120504;28;20016;-48
2022/12/27 08:43:24;;;;;;;7.88;3.40;;;3.70;99.90;;;;;;5119292;28;20502;-52
2022/12/27 08:45:49;;;;;;;15.35;4.35;;;3.70;99.90;;;;;;5119966;28;20425;-54
2022/12/27 08:48:15;;;;;;;7.40;3.85;;;3.80;99.90;;;;;;5119041;28;20031;-49
2022/12/27 08:50:40;;;;;;;10.93;4.13;;;3.90;99.90;;;;;;5119689;28;20535;-51
2022/12/27 08:53:06;;;;;;;7.32;3.08;;;4.10;99.90;;;;;;5118184;28;20111;-55
2022/12/27 08:55:32;;;;;;;5.28;2.92;;;4.70;99.90;;;;;;5117188;28;20019;-54
2022/12/27 08:58:05;;;;;;;9.50;3.40;;;5.50;99.90;;;;;;5099776;28;20072;-56
2022/12/27 09:00:31;;;;;;;5.18;2.78;;;6.40;99.90;;;;;;5101128;28;20152;-53
2022/12/27 09:02:57;;;;;;;7.05;2.70;;;6.90;99.90;;;;;;5117768;28;20487;-52
2022/12/27 09:05:24;;;;;;;8.15;2.95;;;7.50;99.90;;;;;;5119323;28;20043;-53
2022/12/27 09:07:50;;;;;;;7.93;3.80;;;7.90;99.90;;;;;;5117773;28;20076;-55
2022/12/27 09:10:16;;;;;;;4.93;2.50;;;8.30;99.90;;;;;;5119214;28;20023;-53
2022/12/27 09:12:42;;;;;;;7.93;3.05;;;8.60;99.90;;;;;;5098863;28;20020;-50
2022/12/27 09:15:08;;;;;;;12.23;2.63;;;8.80;99.90;;;;;;5117995;28;20358;-55
2022/12/27 09:17:34;;;;;;;9.40;3.25;;;9.00;99.90;;;;;;5118728;28;20032;-51
2022/12/27 09:19:59;;;;;;;5.10;2.20;;;9.30;99.90;;;;;;5118670;28;20083;-50
2022/12/27 09:22:27;;;;;;;4.07;2.78;;;9.50;99.90;;;;;;5117289;28;20024;-54
2022/12/27 09:24:52;;;;;;;9.73;3.58;;;9.50;99.90;;;;;;5117622;28;20292;-53
2022/12/27 09:27:18;;;;;;;5.10;3.33;;;9.70;99.90;;;;;;5116593;28;20032;-53
2022/12/27 09:29:43;;;;;;;6.22;2.90;;;9.70;99.90;;;;;;5116449;28;20019;-51
2022/12/27 09:32:09;;;;;;;6.97;3.03;;;9.90;99.90;;;;;;5116510;28;20207;-54
2022/12/27 09:34:34;;;;;;;3.97;2.40;;;9.80;99.90;;;;;;5117598;28;20050;-52
2022/12/27 09:36:59;;;;;;;8.30;2.42;;;9.80;99.90;;;;;;5117292;28;20027;-53
2022/12/27 09:39:25;;;;;;;5.63;2.90;;;9.80;99.90;;;;;;5118545;28;20630;-49
2022/12/27 09:42:25;;;;;;;5.80;2.88;;;9.70;99.90;;;;;;5128818;28;20039;-52
2022/12/27 09:45:16;;;;;;;8.07;3.55;;;9.70;99.90;;;;;;5064838;28;20088;-52
2022/12/27 09:48:04;;;;;;;6.47;3.33;;;9.70;99.90;;;;;;5125053;28;20043;-51
2022/12/27 09:50:33;;;;;;;11.57;3.30;;;9.90;99.90;;;;;;5124784;28;20020;-50
2022/12/27 09:53:25;;;;;;;7.28;3.13;;;9.80;99.90;;;;;;5122228;28;20039;-53
2022/12/27 09:55:54;;;;;;;5.40;3.25;;;9.70;99.90;;;;;;5113681;28;20042;-50
2022/12/27 09:58:44;;;;;;;6.80;3.08;;;9.80;99.90;;;;;;5119406;28;20031;-49
2022/12/27 10:01:34;;;;;;;6.13;2.83;;;9.60;99.90;;;;;;5120242;28;20515;-51
2022/12/27 10:04:00;;;;;;;9.57;3.75;;;9.90;99.90;;;;;;5120374;28;20028;-50
2022/12/27 10:06:29;;;;;;;5.68;3.05;;;9.90;99.90;;;;;;5121382;28;20035;-55
2022/12/27 10:09:16;;;;;;;6.68;3.75;;;10.00;99.90;;;;;;5100987;28;20034;-54
2022/12/27 10:12:02;;;;;;;8.82;3.97;;;9.70;99.90;;;;;;5102705;28;20015;-54
2022/12/27 10:14:58;;;;;;;4.88;3.20;;;9.40;99.90;;;;;;5085547;28;20092;-53
2022/12/27 10:17:49;;;;;;;6.47;3.55;;;9.00;99.90;;;;;;5120830;28;20046;-53
2022/12/27 10:20:21;;;;;;;7.93;3.45;;;8.60;99.90;;;;;;5120523;28;20016;-52
2022/12/27 10:22:53;;;;;;;11.25;4.45;;;8.20;99.90;;;;;;5118792;28;20024;-50
2022/12/27 10:25:22;;;;;;;11.13;4.65;;;7.80;99.90;;;;;;5119180;28;20039;-53
2022/12/27 10:28:00;;;;;;;11.73;4.00;;;7.60;99.90;;;;;;5112277;27;20024;-53
2022/12/27 10:30:28;;;;;;;23.85;10.20;;;7.30;99.90;;;;;;5117504;28;20375;-52
2022/12/27 10:32:54;;;;;;;9.93;5.05;;;6.90;99.90;;;;;;5113697;28;20088;-53
2022/12/27 10:35:20;;;;;;;9.55;5.45;;;6.80;99.90;;;;;;5096916;28;20115;-49
2022/12/27 10:37:46;;;;;;;7.45;4.55;;;6.70;99.90;;;;;;5114892;28;20533;-51
2022/12/27 10:40:30;;;;;;;11.32;4.72;;;6.50;99.90;;;;;;5114032;28;20038;-53
2022/12/27 10:43:03;;;;;;;7.60;5.00;;;6.40;99.90;;;;;;5113108;27;20556;-52
2022/12/27 10:45:32;;;;;;;7.78;5.35;;;6.30;99.90;;;;;;5113965;27;20023;-53
2022/12/27 10:48:13;;;;;;;16.45;5.28;;;6.30;99.90;;;;;;5125182;27;20019;-52
2022/12/27 10:50:45;;;;;;;10.20;6.13;;;6.30;99.90;;;;;;5117365;27;20024;-54
2022/12/27 10:53:40;;;;;;;8.18;5.18;;;6.20;99.90;;;;;;5113506;27;20027;-49
2022/12/27 10:56:14;;;;;;;10.10;5.20;;;6.30;99.90;;;;;;5094914;28;20036;-51
2022/12/27 10:58:48;;;;;;;9.90;5.30;;;6.30;99.90;;;;;;5109209;28;20039;-53
2022/12/27 11:01:28;;;;;;;13.77;6.05;;;6.40;99.90;;;;;;5116567;28;20042;-52
2022/12/27 11:04:17;;;;;;;13.25;5.55;;;6.20;99.90;;;;;;5118326;28;20020;-49
2022/12/27 11:06:45;;;;;;;14.65;6.38;;;6.20;99.90;;;;;;5100905;28;20051;-55
2022/12/27 11:09:19;;;;;;;11.60;6.18;;;6.10;99.90;;;;;;5116885;28;20504;-53
2022/12/27 11:11:45;;;;;;;9.82;5.35;;;6.00;99.90;;;;;;5097588;28;20076;-54
2022/12/27 11:14:16;;;;;;;13.73;5.78;;;5.90;99.90;;;;;;5112596;28;20138;-60
2022/12/27 11:16:42;;;;;;;15.18;5.68;;;5.80;99.90;;;;;;5106878;27;20144;-59
2022/12/27 11:19:22;;;;;;;11.40;6.55;;;5.80;99.90;;;;;;5113544;28;20042;-57
2022/12/27 11:21:48;;;;;;;12.73;6.05;;;5.80;99.90;;;;;;5114732;27;20046;-57
2022/12/27 11:24:16;;;;;;;12.25;4.85;;;5.90;99.90;;;;;;5112838;28;20023;-56
2022/12/27 11:26:56;;;;;;;12.15;4.93;;;5.90;99.90;;;;;;5112080;28;20024;-58
2022/12/27 11:29:24;;;;;;;9.05;5.13;;;5.90;99.90;;;;;;5113604;28;20510;-56
2022/12/27 11:31:51;;;;;;;12.00;5.60;;;5.90;99.90;;;;;;5112073;28;20117;-59
2022/12/27 11:34:29;;;;;;;11.23;4.82;;;6.00;99.90;;;;;;5111941;28;20366;-57
2022/12/27 11:37:04;;;;;;;8.23;4.43;;;6.00;99.90;;;;;;5111457;28;20138;-58
2022/12/27 11:39:46;;;;;;;13.43;5.05;;;6.10;99.90;;;;;;5112462;28;20491;-58
2022/12/27 11:42:37;;;;;;;7.40;4.57;;;6.00;99.90;;;;;;5111778;28;20055;-54
2022/12/27 11:45:17;;;;;;;8.32;4.50;;;6.10;99.90;;;;;;5112579;28;20434;-48
2022/12/27 11:47:46;;;;;;;11.80;4.07;;;6.20;99.90;;;;;;5111855;28;20042;-55
2022/12/27 11:50:27;;;;;;;9.73;4.20;;;6.30;99.90;;;;;;5112556;28;20024;-60
2022/12/27 11:53:11;;;;;;;7.50;3.70;;;6.50;99.90;;;;;;5111588;28;20491;-57
2022/12/27 11:55:50;;;;;;;9.30;4.03;;;6.60;99.90;;;;;;5114224;28;20031;-58
2022/12/27 11:58:53;;;;;;;13.20;4.43;;;6.70;99.90;;;;;;5123842;27;20030;-61
2022/12/27 12:01:56;;;;;;;12.77;3.42;;;6.70;99.90;;;;;;5123793;27;20067;-59
2022/12/27 12:04:51;;;;;;;8.63;3.40;;;6.80;99.90;;;;;;5111744;28;20038;-53
2022/12/27 12:07:38;;;;;;;8.43;3.35;;;6.80;99.90;;;;;;5113056;27;20094;-55
2022/12/27 12:10:20;;;;;;;8.02;3.17;;;6.80;99.90;;;;;;5108630;27;20020;-56
2022/12/27 12:13:07;;;;;;;4.95;3.40;;;6.90;99.90;;;;;;5118655;27;20506;-56
2022/12/27 12:15:55;;;;;;;7.90;2.95;;;6.90;99.90;;;;;;5113508;27;20399;-55
2022/12/27 12:18:48;;;;;;;7.05;3.58;;;6.90;99.90;;;;;;5115688;27;20026;-59
2022/12/27 12:21:35;;;;;;;9.43;4.20;;;6.80;99.90;;;;;;5119516;27;20035;-49
2022/12/27 12:24:32;;;;;;;8.45;4.50;;;6.80;99.90;;;;;;5093192;28;20040;-52
2022/12/27 12:27:06;;;;;;;8.50;4.30;;;6.90;99.90;;;;;;5106660;28;20027;-51
2022/12/27 12:29:48;;;;;;;16.67;5.17;;;6.90;99.90;;;;;;5113063;28;20039;-49
2022/12/27 12:32:27;;;;;;;13.95;4.97;;;7.00;99.90;;;;;;5112865;28;20024;-54
2022/12/27 12:35:14;;;;;;;12.43;4.78;;;7.00;99.90;;;;;;5111557;28;20316;-55
2022/12/27 12:38:01;;;;;;;6.28;4.18;;;6.90;99.90;;;;;;5110874;28;20032;-55
2022/12/27 12:40:32;;;;;;;7.78;4.10;;;6.90;99.90;;;;;;5110953;28;20024;-54
2022/12/27 12:43:36;;;;;;;9.85;4.88;;;6.80;99.90;;;;;;5110478;28;20019;-51
2022/12/27 12:46:12;;;;;;;11.80;4.25;;;6.80;99.90;;;;;;5106872;27;20096;-52
2022/12/27 12:48:50;;;;;;;;;;;6.90;99.90;;;;;;5129406;27;20031;-49
2022/12/27 12:51:29;;;;;;;9.60;4.13;;;6.90;99.90;;;;;;5132312;27;20285;-51
2022/12/27 12:54:24;;;;;;;10.93;4.05;;;6.80;99.90;;;;;;5131051;27;20432;-48
2022/12/27 12:57:24;;;;;;;6.70;4.03;;;6.80;99.90;;;;;;5100080;27;20097;-53
2022/12/27 13:00:08;;;;;;;12.18;4.70;;;6.80;99.90;;;;;;5101274;28;20035;-57
2022/12/27 13:03:02;;;;;;;13.38;3.55;;;6.80;99.90;;;;;;5127033;27;20035;-53
2022/12/27 13:06:00;;;;;;;7.40;4.20;;;6.80;99.90;;;;;;5085796;27;20402;-52
2022/12/27 13:08:28;;;;;;;8.15;3.47;;;6.70;99.90;;;;;;5108085;28;20043;-55
2022/12/27 13:11:09;;;;;;;11.85;4.65;;;6.70;99.90;;;;;;5113945;27;20024;-53
2022/12/27 13:13:53;;;;;;;5.72;3.63;;;6.70;99.90;;;;;;5131761;27;20023;-49
2022/12/27 13:16:41;;;;;;;10.15;4.63;;;6.70;99.90;;;;;;5132253;27;20023;-54
2022/12/27 13:19:46;;;;;;;7.80;3.78;;;6.70;99.90;;;;;;5130533;27;20105;-53
2022/12/27 13:22:19;;;;;;;8.38;3.70;;;6.70;99.90;;;;;;5131590;27;20031;-49
2022/12/27 13:25:29;;;;;;;8.18;3.25;;;6.60;99.90;;;;;;5132403;27;20031;-48
2022/12/27 13:28:21;;;;;;;11.88;3.88;;;6.70;99.90;;;;;;5118224;28;20039;-47
2022/12/27 13:31:25;;;;;;;7.40;3.67;;;6.70;99.90;;;;;;5111493;28;20031;-49
2022/12/27 13:34:27;;;;;;;9.40;3.75;;;6.70;99.90;;;;;;5109754;28;20067;-48
2022/12/27 13:37:07;;;;;;;8.77;3.28;;;6.70;99.90;;;;;;5080753;28;20410;-49
2022/12/27 13:39:37;;;;;;;5.68;3.42;;;6.70;99.90;;;;;;5109193;28;20448;-47
2022/12/27 13:42:34;;;;;;;7.68;2.92;;;6.70;99.90;;;;;;5110907;28;20694;-50
2022/12/27 13:45:22;;;;;;;6.25;3.22;;;6.80;99.90;;;;;;5110620;28;20104;-48
2022/12/27 13:48:03;;;;;;;7.78;3.20;;;6.90;99.90;;;;;;5108194;28;20027;-52
2022/12/27 13:51:04;;;;;;;11.85;3.65;;;7.00;99.90;;;;;;5108667;28;20073;-54
2022/12/27 13:54:07;;;;;;;5.72;3.25;;;7.10;99.90;;;;;;5092269;28;20058;-54
2022/12/27 13:57:10;;;;;;;10.55;3.33;;;7.10;99.90;;;;;;5090525;28;20081;-53
2022/12/27 13:59:47;;;;;;;7.13;3.65;;;7.10;99.90;;;;;;5108150;28;20023;-56
2022/12/27 14:02:31;;;;;;;7.18;3.38;;;7.00;99.90;;;;;;5112910;27;20031;-52
2022/12/27 14:05:16;;;;;;;8.70;3.67;;;7.00;99.90;;;;;;5113315;28;20024;-53
2022/12/27 14:08:14;;;;;;;6.53;3.83;;;7.00;99.90;;;;;;5114047;28;20031;-55
2022/12/27 14:10:49;;;;;;;7.38;3.35;;;6.90;99.90;;;;;;5114667;27;20106;-52
2022/12/27 14:13:31;;;;;;;5.30;3.75;;;6.90;99.90;;;;;;5112000;28;20031;-53
2022/12/27 14:16:19;;;;;;;5.82;3.10;;;6.90;99.90;;;;;;5115247;27;20022;-52
2022/12/27 14:19:17;;;;;;;11.43;2.92;;;6.80;99.90;;;;;;5115297;27;20119;-51
2022/12/27 14:22:00;;;;;;;12.98;3.65;;;6.80;99.90;;;;;;5113664;28;20506;-49
2022/12/27 14:24:56;;;;;;;48.13;24.65;;;6.80;99.90;;;;;;5096494;28;20495;-54
2022/12/27 14:27:50;;;;;;;7.35;3.40;;;6.80;99.90;;;;;;5097978;27;20027;-50
2022/12/27 14:30:33;;;;;;;6.85;3.25;;;6.70;99.90;;;;;;5121320;27;20124;-48
2022/12/27 14:33:09;;;;;;;7.35;3.00;;;6.70;99.90;;;;;;5099197;28;20387;-55
2022/12/27 14:35:49;;;;;;;7.85;2.55;;;6.70;99.90;;;;;;5115817;27;20024;-51
2022/12/27 14:38:36;;;;;;;6.43;2.85;;;6.70;99.90;;;;;;5114881;27;20487;-53
2022/12/27 14:41:34;;;;;;;8.45;3.78;;;6.70;99.90;;;;;;5114384;28;20519;-50
2022/12/27 14:44:23;;;;;;;10.63;3.20;;;6.60;99.90;;;;;;5113505;28;20019;-54
2022/12/27 14:47:26;;;;;;;4.15;2.08;;;6.60;99.90;;;;;;5130103;27;20038;-51
2022/12/27 14:50:23;;;;;;;9.02;2.75;;;6.60;99.90;;;;;;5105487;28;20348;-54
2022/12/27 14:53:13;;;;;;;7.22;2.35;;;6.40;99.90;;;;;;5113482;28;20097;-55
2022/12/27 14:55:50;;;;;;;5.43;2.15;;;6.30;99.90;;;;;;5114208;28;20045;-58
2022/12/27 14:58:42;;;;;;;9.00;2.22;;;6.30;99.90;;;;;;5122760;27;20467;-55
2022/12/27 15:01:28;;;;;;;10.07;3.00;;;6.30;99.90;;;;;;5114006;27;20028;-56
2022/12/27 15:04:07;;;;;;;9.38;2.70;;;6.20;99.90;;;;;;5113745;28;20083;-54
2022/12/27 15:06:44;;;;;;;6.28;3.45;;;6.20;99.90;;;;;;5115265;27;20023;-53
2022/12/27 15:09:40;;;;;;;7.15;2.55;;;6.10;99.90;;;;;;5115770;28;20488;-57
2022/12/27 15:12:18;;;;;;;5.32;2.60;;;6.10;99.90;;;;;;5110128;28;20031;-56
2022/12/27 15:14:53;;;;;;;7.40;2.83;;;6.10;99.90;;;;;;5114053;28;20028;-57
2022/12/27 15:17:26;;;;;;;5.47;2.40;;;6.00;99.90;;;;;;5112708;28;20383;-56
2022/12/27 15:20:07;;;;;;;8.80;2.40;;;6.00;99.90;;;;;;5113846;28;20028;-52